KWLD/WLD METAR and TAF weather

Enter ICAO airport designator
Station Type Date Time Source
KWLD METAR 2019/08/21 22:54 UTC NOAA

KWLD 212254Z AUTO 15012G19KT 10SM CLR 33/22 A2991 RMK AO2 SLP113 T03280222


Station Type Date Time Source
KWLD Decoded METAR 2019/08/21 22:54 UTC NOAA

Station name not available
Aug 21, 2019 - 06:54 PM EDT / 2019.08.21 2254 UTC
Wind: from the SSE (150 degrees) at 14 MPH (12 KT) gusting to 22 MPH (19 KT):0
Visibility: 10 mile(s):0
Sky conditions: clear
Temperature: 91.0 F (32.8 C)
Heat index: 98.1 F (36.7 C):1
Dew Point: 72.0 F (22.2 C)
Relative Humidity: 53%
Pressure (altimeter): 29.91 in. Hg (1012 hPa)
ob: KWLD 212254Z AUTO 15012G19KT 10SM CLR 33/22 A2991 RMK AO2 SLP113 T03280222
cycle: 23

Station Type Date Time Source
KWLD TAF UTC NOAA

Error!

Example: see airport list